createdAt,value
2023-01-13T00:01:29.090Z,8.90
2023-01-13T00:03:57.309Z,8.84
2023-01-13T00:06:26.251Z,8.78
2023-01-13T00:08:54.411Z,8.72
2023-01-13T00:11:22.544Z,8.71
2023-01-13T00:13:49.490Z,8.68
2023-01-13T00:16:18.709Z,8.70
2023-01-13T00:18:46.984Z,8.70
2023-01-13T00:21:23.159Z,8.67
2023-01-13T00:23:53.880Z,8.64
2023-01-13T00:26:30.702Z,8.58
2023-01-13T00:28:59.836Z,8.55
2023-01-13T00:31:29.321Z,8.56
2023-01-13T00:33:58.166Z,8.57
2023-01-13T00:36:25.144Z,8.53
2023-01-13T00:38:51.940Z,8.50
2023-01-13T00:41:22.795Z,8.47
2023-01-13T00:43:50.894Z,8.45
2023-01-13T00:46:21.644Z,8.43
2023-01-13T00:48:49.791Z,8.40
2023-01-13T00:51:20.261Z,8.37
2023-01-13T00:53:50.552Z,8.36
2023-01-13T00:56:30.532Z,8.40
2023-01-13T00:59:05.741Z,8.35
2023-01-13T01:01:33.204Z,8.33
2023-01-13T01:04:00.131Z,8.33
2023-01-13T01:06:28.097Z,8.34
2023-01-13T01:08:55.950Z,8.34
2023-01-13T01:11:30.036Z,8.32
2023-01-13T01:14:00.322Z,8.30
2023-01-13T01:16:30.154Z,8.31
2023-01-13T01:18:57.562Z,8.36
2023-01-13T01:21:26.564Z,8.37
2023-01-13T01:23:54.788Z,8.35
2023-01-13T01:26:27.410Z,8.36
2023-01-13T01:28:55.243Z,8.36
2023-01-13T01:31:31.499Z,8.35
2023-01-13T01:34:00.602Z,8.32
2023-01-13T01:36:29.986Z,8.32
2023-01-13T01:38:58.932Z,8.28
2023-01-13T01:41:30.285Z,8.24
2023-01-13T01:44:06.639Z,8.20
2023-01-13T01:46:40.472Z,8.22
2023-01-13T01:49:12.904Z,8.19
2023-01-13T01:51:55.523Z,8.17
2023-01-13T01:54:50.048Z,8.16
2023-01-13T01:57:51.619Z,8.16
2023-01-13T02:00:18.836Z,8.16
2023-01-13T02:02:51.643Z,8.16
2023-01-13T02:05:19.801Z,8.14
2023-01-13T02:07:52.185Z,8.15
2023-01-13T02:10:24.051Z,8.15
2023-01-13T02:12:53.063Z,8.09
2023-01-13T02:15:40.222Z,8.04
2023-01-13T02:18:52.064Z,8.06
2023-01-13T02:22:13.738Z,7.99
2023-01-13T02:25:26.070Z,7.96
2023-01-13T02:28:11.054Z,7.92
2023-01-13T02:31:33.604Z,7.93
2023-01-13T02:34:40.392Z,7.89
2023-01-13T02:37:19.136Z,7.87
2023-01-13T02:39:55.978Z,7.88
2023-01-13T02:42:58.961Z,7.90
2023-01-13T02:45:34.437Z,7.91
2023-01-13T02:48:06.625Z,7.92
2023-01-13T02:50:40.984Z,7.93
2023-01-13T02:53:18.302Z,7.95
2023-01-13T02:55:51.544Z,7.94
2023-01-13T02:58:26.745Z,7.93
2023-01-13T03:00:53.848Z,7.93
2023-01-13T03:03:20.787Z,7.94
2023-01-13T03:05:53.853Z,7.96
2023-01-13T03:08:43.295Z,7.97
2023-01-13T03:11:14.507Z,7.96
2023-01-13T03:14:14.669Z,7.96
2023-01-13T03:17:17.563Z,7.97
2023-01-13T03:20:18.745Z,7.95
2023-01-13T03:23:03.280Z,7.96
2023-01-13T03:25:37.724Z,7.96
2023-01-13T03:28:13.585Z,7.98
2023-01-13T03:31:02.027Z,7.98
2023-01-13T03:33:45.387Z,8.01
2023-01-13T03:36:16.713Z,8.05
2023-01-13T03:38:52.432Z,8.04
2023-01-13T03:41:30.229Z,8.07
2023-01-13T03:44:23.371Z,8.13
2023-01-13T03:47:03.031Z,8.16
2023-01-13T03:49:42.601Z,8.17
2023-01-13T03:52:21.585Z,8.17
2023-01-13T03:54:58.096Z,8.23
2023-01-13T03:57:31.774Z,8.27
2023-01-13T04:00:04.064Z,8.31
2023-01-13T04:02:56.449Z,8.32
2023-01-13T04:05:23.747Z,8.34
2023-01-13T04:08:09.124Z,8.33
2023-01-13T04:10:46.026Z,8.36
2023-01-13T04:13:21.035Z,8.41
2023-01-13T04:15:50.070Z,8.41
2023-01-13T04:18:30.900Z,8.39
2023-01-13T04:21:01.769Z,8.39
2023-01-13T04:23:29.436Z,8.32
2023-01-13T04:25:57.251Z,8.29
2023-01-13T04:28:25.249Z,8.24
2023-01-13T04:30:52.775Z,8.21
2023-01-13T04:33:19.917Z,8.17
2023-01-13T04:35:47.978Z,8.11
2023-01-13T04:38:18.730Z,8.05
2023-01-13T04:40:46.221Z,8.02
2023-01-13T04:43:13.143Z,7.99
2023-01-13T04:45:40.242Z,7.97
2023-01-13T04:48:07.741Z,7.97
2023-01-13T04:50:35.699Z,8.00
2023-01-13T04:53:02.756Z,7.99
2023-01-13T04:55:29.702Z,7.96
2023-01-13T04:58:03.307Z,7.93
2023-01-13T05:00:30.638Z,7.89
2023-01-13T05:02:58.284Z,7.83
2023-01-13T05:05:27.542Z,7.75
2023-01-13T05:07:54.838Z,7.67
2023-01-13T05:10:24.004Z,7.59
2023-01-13T05:13:09.403Z,7.54
2023-01-13T05:15:54.609Z,7.49
2023-01-13T05:18:21.947Z,7.46
2023-01-13T05:20:49.929Z,7.42
2023-01-13T05:23:35.435Z,7.39
2023-01-13T05:26:02.586Z,7.40
2023-01-13T05:28:34.207Z,7.41
2023-01-13T05:31:01.743Z,7.41
2023-01-13T05:33:28.620Z,7.40
2023-01-13T05:35:55.499Z,7.38
2023-01-13T05:38:22.465Z,7.33
2023-01-13T05:41:07.842Z,7.37
2023-01-13T05:43:35.005Z,7.41
2023-01-13T05:46:08.016Z,7.44
2023-01-13T05:48:39.389Z,7.45
2023-01-13T05:51:10.355Z,7.46
2023-01-13T05:53:37.912Z,7.50
2023-01-13T05:56:06.898Z,7.52
2023-01-13T05:58:34.751Z,7.53
2023-01-13T06:01:05.373Z,7.54
2023-01-13T06:03:32.410Z,7.52
2023-01-13T06:06:01.660Z,7.47
2023-01-13T06:08:29.385Z,7.42
2023-01-13T06:10:56.316Z,7.39
2023-01-13T06:13:25.473Z,7.37
2023-01-13T06:15:56.629Z,7.32
2023-01-13T06:18:24.050Z,7.30
2023-01-13T06:20:50.864Z,7.28
2023-01-13T06:23:18.103Z,7.27
2023-01-13T06:25:58.590Z,7.26
2023-01-13T06:28:25.487Z,7.23
2023-01-13T06:30:58.914Z,7.21
2023-01-13T06:33:35.416Z,7.17
2023-01-13T06:36:12.239Z,7.17
2023-01-13T06:38:46.248Z,7.15
2023-01-13T06:41:13.631Z,7.12
2023-01-13T06:43:40.954Z,7.16
2023-01-13T06:46:08.196Z,7.18
2023-01-13T06:48:35.745Z,7.18
2023-01-13T06:51:04.494Z,7.20
2023-01-13T06:53:31.765Z,7.21
2023-01-13T06:55:58.624Z,7.22
2023-01-13T06:58:25.723Z,7.21
2023-01-13T07:00:53.644Z,7.23
2023-01-13T07:03:20.679Z,7.24
2023-01-13T07:05:56.012Z,7.24
2023-01-13T07:08:24.384Z,7.24
2023-01-13T07:10:52.881Z,7.22
2023-01-13T07:13:39.195Z,7.21
2023-01-13T07:16:08.959Z,7.25
2023-01-13T07:18:36.749Z,7.28
2023-01-13T07:21:10.370Z,7.30
2023-01-13T07:23:41.436Z,7.32
2023-01-13T07:26:10.440Z,7.36
2023-01-13T07:28:38.828Z,7.35
2023-01-13T07:31:14.525Z,7.34
2023-01-13T07:33:41.441Z,7.32
2023-01-13T07:36:09.039Z,7.31
2023-01-13T07:38:36.291Z,7.30
2023-01-13T07:41:23.096Z,7.28
2023-01-13T07:43:50.781Z,7.27
2023-01-13T07:46:18.989Z,7.27
2023-01-13T07:48:48.506Z,7.25
2023-01-13T07:51:15.805Z,7.26
2023-01-13T07:53:42.694Z,7.25
2023-01-13T07:56:09.687Z,7.27
2023-01-13T07:58:37.766Z,7.28
2023-01-13T08:01:13.644Z,7.28
2023-01-13T08:03:41.472Z,7.32
2023-01-13T08:06:10.249Z,7.32
2023-01-13T08:08:38.388Z,7.33
2023-01-13T08:11:08.509Z,7.33
2023-01-13T08:13:35.659Z,7.36
2023-01-13T08:16:09.811Z,7.37
2023-01-13T08:18:38.637Z,7.37
2023-01-13T08:21:09.597Z,7.41
2023-01-13T08:23:37.259Z,7.47
2023-01-13T08:26:08.515Z,7.51
2023-01-13T08:28:36.256Z,7.51
2023-01-13T08:31:08.199Z,7.51
2023-01-13T08:33:35.644Z,7.51
2023-01-13T08:36:06.038Z,7.58
2023-01-13T08:38:35.050Z,7.61
2023-01-13T08:41:09.143Z,7.65
2023-01-13T08:43:36.072Z,7.64
2023-01-13T08:46:04.946Z,7.62
2023-01-13T08:48:31.939Z,7.60
2023-01-13T08:51:09.257Z,7.60
2023-01-13T08:53:36.199Z,7.66
2023-01-13T08:56:11.649Z,7.72
2023-01-13T08:58:38.828Z,7.77
2023-01-13T09:01:08.489Z,7.79
2023-01-13T09:03:35.451Z,7.80
2023-01-13T09:06:02.495Z,7.80
2023-01-13T09:08:29.386Z,7.81
2023-01-13T09:10:57.432Z,7.79
2023-01-13T09:13:24.277Z,7.79
2023-01-13T09:15:52.361Z,7.90
2023-01-13T09:18:19.274Z,8.03
2023-01-13T09:20:46.153Z,8.18
2023-01-13T09:23:13.003Z,8.19
2023-01-13T09:25:40.716Z,8.15
2023-01-13T09:28:08.698Z,8.15
2023-01-13T09:30:37.299Z,8.14
2023-01-13T09:33:36.301Z,8.13
2023-01-13T09:36:03.252Z,8.12
2023-01-13T09:38:30.048Z,8.08
2023-01-13T09:40:56.904Z,7.95
2023-01-13T09:43:54.367Z,7.84
2023-01-13T09:46:47.103Z,7.79
2023-01-13T09:49:22.988Z,7.80
2023-01-13T09:52:03.776Z,7.86
2023-01-13T09:55:06.281Z,7.92
2023-01-13T09:57:38.392Z,7.87
2023-01-13T10:00:11.658Z,7.81
2023-01-13T10:03:24.613Z,7.84
2023-01-13T10:06:11.354Z,7.93
2023-01-13T10:08:41.971Z,7.96
2023-01-13T10:11:37.922Z,7.80
2023-01-13T10:14:37.730Z,7.77
2023-01-13T10:17:31.745Z,7.80
2023-01-13T10:20:08.258Z,7.69
2023-01-13T10:22:53.197Z,7.58
2023-01-13T10:25:29.608Z,7.45
2023-01-13T10:28:06.653Z,7.32
2023-01-13T10:30:40.085Z,7.20
2023-01-13T10:33:39.561Z,7.05
2023-01-13T10:36:12.096Z,6.97
2023-01-13T10:38:43.962Z,6.88
2023-01-13T10:41:13.827Z,6.82
2023-01-13T10:43:44.555Z,6.77
2023-01-13T10:46:18.189Z,6.75
2023-01-13T10:48:59.639Z,6.75
2023-01-13T10:51:43.530Z,6.78
2023-01-13T10:54:13.290Z,6.84
2023-01-13T10:56:45.346Z,6.89
2023-01-13T10:59:19.673Z,6.94
2023-01-13T11:01:58.683Z,7.00
2023-01-13T11:04:37.020Z,6.99
2023-01-13T11:07:18.205Z,6.94
2023-01-13T11:09:45.158Z,6.96
2023-01-13T11:12:35.872Z,7.00
2023-01-13T11:15:12.025Z,7.00
2023-01-13T11:17:48.926Z,7.01
2023-01-13T11:20:32.533Z,7.03
2023-01-13T11:23:11.156Z,7.11
2023-01-13T11:25:43.506Z,7.18
2023-01-13T11:28:37.423Z,7.24
2023-01-13T11:31:16.999Z,7.31
2023-01-13T11:34:01.500Z,7.41
2023-01-13T11:36:39.471Z,7.49
2023-01-13T11:39:49.904Z,7.59
2023-01-13T11:42:31.654Z,7.86
2023-01-13T11:45:36.483Z,7.96
2023-01-13T11:48:04.760Z,8.00
2023-01-13T11:51:04.747Z,8.19
2023-01-13T11:54:25.451Z,8.21
2023-01-13T11:57:13.164Z,8.18
2023-01-13T12:00:43.436Z,8.18
2023-01-13T12:03:24.670Z,8.06
2023-01-13T12:06:20.152Z,7.98
2023-01-13T12:09:18.484Z,7.95
2023-01-13T12:12:22.187Z,7.95
2023-01-13T12:15:41.100Z,7.85
2023-01-13T12:19:07.498Z,7.64
2023-01-13T12:21:56.636Z,7.55
2023-01-13T12:24:38.206Z,7.54
2023-01-13T12:27:43.097Z,7.59
2023-01-13T12:30:37.066Z,7.64
2023-01-13T12:33:29.857Z,7.66
2023-01-13T12:36:30.568Z,7.69
2023-01-13T12:39:15.603Z,7.77
2023-01-13T12:42:16.513Z,7.88
2023-01-13T12:45:12.119Z,7.93
2023-01-13T12:47:48.661Z,7.96
2023-01-13T12:50:27.382Z,8.03
2023-01-13T12:53:27.410Z,8.03
2023-01-13T12:55:54.190Z,8.07
2023-01-13T12:58:29.874Z,8.14
2023-01-13T13:01:14.464Z,8.17
2023-01-13T13:03:42.446Z,8.21
2023-01-13T13:06:31.583Z,8.30
2023-01-13T13:09:15.517Z,8.32
2023-01-13T13:11:58.058Z,8.32
2023-01-13T13:14:37.192Z,8.35
2023-01-13T13:17:20.626Z,8.46
2023-01-13T13:19:49.796Z,8.58
2023-01-13T13:22:21.993Z,8.64
2023-01-13T13:24:48.771Z,8.68
2023-01-13T13:27:46.969Z,8.67
2023-01-13T13:30:34.714Z,8.65
2023-01-13T13:33:51.173Z,8.59
2023-01-13T13:36:34.147Z,8.56
2023-01-13T13:39:48.994Z,8.54
2023-01-13T13:42:43.795Z,8.51
2023-01-13T13:45:45.479Z,8.50
2023-01-13T13:48:34.361Z,8.48
2023-01-13T13:51:20.875Z,8.52
2023-01-13T13:53:49.184Z,8.51
2023-01-13T13:56:24.364Z,8.53
2023-01-13T13:58:52.604Z,8.55
2023-01-13T14:01:29.646Z,8.57
2023-01-13T14:04:19.904Z,8.59
2023-01-13T14:06:57.731Z,8.61
2023-01-13T14:09:28.674Z,8.62
2023-01-13T14:12:06.695Z,8.65
2023-01-13T14:14:33.632Z,8.65
2023-01-13T14:17:01.222Z,8.69
2023-01-13T14:19:35.617Z,8.76
2023-01-13T14:22:05.537Z,8.79
2023-01-13T14:24:34.151Z,8.80
2023-01-13T14:27:18.757Z,8.81
2023-01-13T14:29:46.046Z,8.77
2023-01-13T14:32:19.407Z,8.73
2023-01-13T14:34:46.700Z,8.72
2023-01-13T14:37:42.101Z,8.68
2023-01-13T14:40:33.616Z,8.64
2023-01-13T14:43:03.673Z,8.62
2023-01-13T14:45:33.160Z,8.59
2023-01-13T14:48:02.389Z,8.57
2023-01-13T14:50:34.027Z,8.56
2023-01-13T14:53:01.867Z,8.55
2023-01-13T14:55:40.680Z,8.55
2023-01-13T14:58:20.637Z,8.56
2023-01-13T15:00:49.468Z,8.55
2023-01-13T15:03:20.585Z,8.54
2023-01-13T15:05:53.313Z,8.56
2023-01-13T15:08:35.540Z,8.55
2023-01-13T15:11:18.194Z,8.54
2023-01-13T15:14:03.480Z,8.55
2023-01-13T15:16:34.636Z,8.55
2023-01-13T15:19:01.881Z,8.58
2023-01-13T15:21:28.760Z,8.59
2023-01-13T15:23:55.701Z,8.61
2023-01-13T15:26:29.434Z,8.61
2023-01-13T15:28:59.040Z,8.59
2023-01-13T15:31:27.981Z,8.55
2023-01-13T15:33:55.371Z,8.52
2023-01-13T15:36:28.362Z,8.51
2023-01-13T15:38:56.077Z,8.50
2023-01-13T15:41:42.627Z,8.51
2023-01-13T15:44:33.560Z,8.49
2023-01-13T15:47:06.383Z,8.47
2023-01-13T15:49:39.568Z,8.44
2023-01-13T15:52:27.652Z,8.44
2023-01-13T15:54:54.951Z,8.43
2023-01-13T15:57:31.768Z,8.45
2023-01-13T16:00:14.146Z,8.39
2023-01-13T16:02:41.032Z,8.36
2023-01-13T16:05:08.250Z,8.36
2023-01-13T16:07:35.122Z,8.35
2023-01-13T16:10:05.087Z,8.36
2023-01-13T16:12:32.374Z,8.37
2023-01-13T16:14:59.266Z,8.38
2023-01-13T16:17:30.290Z,8.41
2023-01-13T16:19:57.153Z,8.39
2023-01-13T16:22:24.051Z,8.36
2023-01-13T16:24:50.878Z,8.38
2023-01-13T16:27:22.131Z,8.41
2023-01-13T16:29:51.030Z,8.41
2023-01-13T16:32:20.927Z,8.43
2023-01-13T16:34:48.831Z,8.41
2023-01-13T16:37:25.375Z,8.42
2023-01-13T16:39:54.746Z,8.45
2023-01-13T16:42:22.022Z,8.45
2023-01-13T16:44:50.709Z,8.39
2023-01-13T16:47:19.018Z,8.30
2023-01-13T16:49:46.503Z,8.26
2023-01-13T16:52:13.445Z,8.24
2023-01-13T16:54:40.376Z,8.23
2023-01-13T16:57:07.946Z,8.26
2023-01-13T16:59:34.793Z,8.29
2023-01-13T17:02:02.200Z,8.35
2023-01-13T17:04:29.177Z,8.42
2023-01-13T17:07:11.925Z,8.48
2023-01-13T17:09:38.687Z,8.51
2023-01-13T17:12:05.897Z,8.53
2023-01-13T17:14:32.742Z,8.55
2023-01-13T17:16:59.703Z,8.54
2023-01-13T17:19:26.902Z,8.53
2023-01-13T17:21:53.958Z,8.47
2023-01-13T17:24:21.099Z,8.38
2023-01-13T17:26:50.988Z,8.37
2023-01-13T17:29:25.139Z,8.38
2023-01-13T17:31:52.752Z,8.39
2023-01-13T17:34:21.093Z,8.36
2023-01-13T17:36:48.372Z,8.37
2023-01-13T17:39:18.926Z,8.41
2023-01-13T17:41:46.167Z,8.43
2023-01-13T17:44:21.224Z,8.43
2023-01-13T17:46:49.364Z,8.38
2023-01-13T17:49:21.725Z,8.34
2023-01-13T17:51:51.042Z,8.33
2023-01-13T17:54:18.980Z,8.35
2023-01-13T17:56:45.929Z,8.29
2023-01-13T17:59:15.216Z,8.08
2023-01-13T18:01:42.518Z,7.94
2023-01-13T18:04:16.688Z,7.86
2023-01-13T18:06:44.838Z,7.79
2023-01-13T18:09:12.353Z,7.70
2023-01-13T18:11:39.623Z,7.62
2023-01-13T18:14:07.216Z,7.54
2023-01-13T18:16:34.078Z,7.49
2023-01-13T18:19:19.428Z,7.46
2023-01-13T18:22:06.728Z,7.41
2023-01-13T18:24:53.070Z,7.45
2023-01-13T18:27:29.093Z,7.63
2023-01-13T18:29:59.836Z,7.74
2023-01-13T18:32:33.035Z,7.68
2023-01-13T18:35:09.973Z,7.51
2023-01-13T18:37:40.726Z,7.39
2023-01-13T18:40:10.775Z,7.33
2023-01-13T18:42:54.438Z,7.27
2023-01-13T18:45:27.611Z,7.26
2023-01-13T18:47:58.062Z,7.22
2023-01-13T18:50:25.853Z,7.19
2023-01-13T18:52:53.256Z,7.14
2023-01-13T18:55:20.898Z,7.15
2023-01-13T18:57:48.018Z,7.14
2023-01-13T19:00:19.274Z,7.14
2023-01-13T19:02:50.835Z,7.22
2023-01-13T19:05:18.469Z,7.28
2023-01-13T19:07:50.505Z,7.31
2023-01-13T19:10:18.341Z,7.39
2023-01-13T19:12:45.288Z,7.43
2023-01-13T19:15:12.558Z,7.45
2023-01-13T19:17:39.455Z,7.45
2023-01-13T19:20:07.294Z,7.50
2023-01-13T19:22:35.833Z,7.57
2023-01-13T19:25:06.066Z,7.61
2023-01-13T19:27:33.081Z,7.66
2023-01-13T19:30:01.866Z,7.67
2023-01-13T19:32:32.960Z,7.69
2023-01-13T19:34:59.970Z,7.68
2023-01-13T19:37:31.539Z,7.67
2023-01-13T19:39:59.618Z,7.65
2023-01-13T19:42:45.787Z,7.62
2023-01-13T19:45:31.289Z,7.58
2023-01-13T19:48:07.626Z,7.57
2023-01-13T19:50:41.364Z,7.58
2023-01-13T19:53:16.875Z,7.60
2023-01-13T19:55:47.776Z,7.62
2023-01-13T19:58:15.026Z,7.63
2023-01-13T20:00:47.144Z,7.67
2023-01-13T20:03:20.677Z,7.65
2023-01-13T20:05:47.919Z,7.61
2023-01-13T20:08:14.812Z,7.64
2023-01-13T20:10:44.167Z,7.61
2023-01-13T20:13:11.005Z,7.57
2023-01-13T20:15:39.857Z,7.55
2023-01-13T20:18:07.445Z,7.51
2023-01-13T20:20:35.105Z,7.48
2023-01-13T20:23:02.014Z,7.46
2023-01-13T20:25:29.447Z,7.46
2023-01-13T20:27:56.939Z,7.47
2023-01-13T20:30:23.966Z,7.43
2023-01-13T20:32:52.133Z,7.36
2023-01-13T20:35:19.180Z,7.31
2023-01-13T20:37:46.022Z,7.29
2023-01-13T20:40:15.858Z,7.27
2023-01-13T20:42:45.107Z,7.29
2023-01-13T20:45:20.358Z,7.30
2023-01-13T20:47:47.417Z,7.36
2023-01-13T20:50:15.726Z,7.37
2023-01-13T20:52:42.919Z,7.38
2023-01-13T20:55:11.312Z,7.40
2023-01-13T20:57:38.255Z,7.47
2023-01-13T21:00:06.775Z,7.51
2023-01-13T21:02:33.798Z,7.57
2023-01-13T21:05:00.655Z,7.62
2023-01-13T21:07:28.253Z,7.64
2023-01-13T21:09:55.195Z,7.72
2023-01-13T21:12:40.499Z,7.78
2023-01-13T21:15:17.501Z,7.79
2023-01-13T21:18:04.487Z,7.80
2023-01-13T21:20:35.349Z,7.74
2023-01-13T21:23:03.964Z,7.72
2023-01-13T21:25:33.467Z,7.72
2023-01-13T21:28:05.667Z,7.76
2023-01-13T21:30:34.045Z,7.80
2023-01-13T21:33:01.243Z,7.84
2023-01-13T21:35:28.101Z,7.88
2023-01-13T21:37:54.995Z,7.93
2023-01-13T21:40:22.119Z,7.99
2023-01-13T21:43:07.269Z,8.01
2023-01-13T21:45:52.602Z,8.03
2023-01-13T21:48:19.417Z,8.02
2023-01-13T21:50:46.304Z,8.02
2023-01-13T21:53:13.115Z,8.02
2023-01-13T21:55:39.972Z,8.01
2023-01-13T21:58:12.404Z,8.03
2023-01-13T22:00:42.680Z,8.04
2023-01-13T22:03:12.396Z,8.06
2023-01-13T22:05:40.107Z,8.07
2023-01-13T22:08:07.998Z,8.04
2023-01-13T22:10:35.277Z,8.03
2023-01-13T22:13:24.028Z,8.01
2023-01-13T22:15:51.196Z,8.00
2023-01-13T22:18:18.386Z,8.00
2023-01-13T22:20:46.016Z,7.99
2023-01-13T22:23:12.850Z,7.97
2023-01-13T22:25:39.792Z,7.92
2023-01-13T22:28:09.012Z,7.89
2023-01-13T22:30:36.024Z,7.86
2023-01-13T22:33:02.956Z,7.80
2023-01-13T22:35:29.782Z,7.71
2023-01-13T22:37:56.599Z,7.64
2023-01-13T22:40:23.705Z,7.57
2023-01-13T22:42:53.423Z,7.54
2023-01-13T22:45:20.625Z,7.49
2023-01-13T22:47:49.859Z,7.45
2023-01-13T22:50:20.730Z,7.39
2023-01-13T22:52:47.561Z,7.38
2023-01-13T22:55:14.558Z,7.35
2023-01-13T22:57:47.824Z,7.28
2023-01-13T23:00:19.048Z,7.25
2023-01-13T23:02:46.339Z,7.21
2023-01-13T23:05:13.899Z,7.22
2023-01-13T23:07:41.192Z,7.20
2023-01-13T23:10:11.601Z,7.19
2023-01-13T23:12:38.545Z,7.23
2023-01-13T23:15:06.072Z,7.24
2023-01-13T23:17:32.934Z,7.23
2023-01-13T23:19:59.766Z,7.23
2023-01-13T23:22:26.580Z,7.24
2023-01-13T23:24:56.127Z,7.24
2023-01-13T23:27:22.969Z,7.26
2023-01-13T23:29:49.755Z,7.28
2023-01-13T23:32:16.578Z,7.32
2023-01-13T23:34:43.403Z,7.31
2023-01-13T23:37:10.170Z,7.27
2023-01-13T23:39:37.015Z,7.26
2023-01-13T23:42:03.955Z,7.23
2023-01-13T23:44:30.809Z,7.22
2023-01-13T23:46:58.440Z,7.19
2023-01-13T23:49:25.284Z,7.16
2023-01-13T23:51:52.627Z,7.13
2023-01-13T23:54:20.053Z,7.10
2023-01-13T23:56:50.279Z,7.11
2023-01-13T23:59:17.141Z,7.10
